sensor_id;sensor_type;location;lat;lon;timestamp;pressure;altitude;pressure_sealevel;temperature;humidity
10978;BME280;5542;48.272;10.794;2023-05-20T00:00:10;95732.53;;;12.63;82.18
10978;BME280;5542;48.272;10.794;2023-05-20T00:02:36;95718.84;;;12.49;83.35
10978;BME280;5542;48.272;10.794;2023-05-20T00:05:03;95727.41;;;12.40;83.54
10978;BME280;5542;48.272;10.794;2023-05-20T00:07:30;95721.72;;;12.48;83.66
10978;BME280;5542;48.272;10.794;2023-05-20T00:09:57;95718.44;;;12.57;83.24
10978;BME280;5542;48.272;10.794;2023-05-20T00:12:24;95716.28;;;12.54;83.14
10978;BME280;5542;48.272;10.794;2023-05-20T00:14:52;95713.97;;;12.41;83.92
10978;BME280;5542;48.272;10.794;2023-05-20T00:17:18;95713.97;;;12.41;84.25
10978;BME280;5542;48.272;10.794;2023-05-20T00:19:45;95709.94;;;12.39;84.46
10978;BME280;5542;48.272;10.794;2023-05-20T00:22:11;95712.28;;;12.35;84.78
10978;BME280;5542;48.272;10.794;2023-05-20T00:24:38;95716.28;;;12.38;85.07
10978;BME280;5542;48.272;10.794;2023-05-20T00:27:04;95711.50;;;12.35;85.07
10978;BME280;5542;48.272;10.794;2023-05-20T00:29:32;95709.06;;;12.33;85.35
10978;BME280;5542;48.272;10.794;2023-05-20T00:32:00;95711.56;;;12.40;85.29
10978;BME280;5542;48.272;10.794;2023-05-20T00:34:27;95707.44;;;12.44;84.90
10978;BME280;5542;48.272;10.794;2023-05-20T00:36:53;95702.38;;;12.42;85.10
10978;BME280;5542;48.272;10.794;2023-05-20T00:39:20;95708.22;;;12.44;85.29
10978;BME280;5542;48.272;10.794;2023-05-20T00:41:46;95703.09;;;12.38;85.59
10978;BME280;5542;48.272;10.794;2023-05-20T00:44:13;95703.09;;;12.54;84.91
10978;BME280;5542;48.272;10.794;2023-05-20T00:46:40;95705.50;;;12.39;85.83
10978;BME280;5542;48.272;10.794;2023-05-20T00:49:08;95699.25;;;12.28;86.34
10978;BME280;5542;48.272;10.794;2023-05-20T00:51:34;95696.22;;;12.37;86.22
10978;BME280;5542;48.272;10.794;2023-05-20T00:54:01;95694.78;;;12.29;86.15
10978;BME280;5542;48.272;10.794;2023-05-20T00:56:28;95696.56;;;12.40;85.34
10978;BME280;5542;48.272;10.794;2023-05-20T00:58:55;95699.81;;;12.47;84.91
10978;BME280;5542;48.272;10.794;2023-05-20T01:01:22;95698.31;;;12.35;85.93
10978;BME280;5542;48.272;10.794;2023-05-20T01:03:50;95702.63;;;12.41;85.95
10978;BME280;5542;48.272;10.794;2023-05-20T01:06:18;95691.75;;;12.37;86.21
10978;BME280;5542;48.272;10.794;2023-05-20T01:08:44;95687.50;;;12.36;86.39
10978;BME280;5542;48.272;10.794;2023-05-20T01:11:16;95688.56;;;12.35;86.59
10978;BME280;5542;48.272;10.794;2023-05-20T01:13:48;95682.88;;;12.26;86.93
10978;BME280;5542;48.272;10.794;2023-05-20T01:16:19;95685.66;;;12.37;86.37
10978;BME280;5542;48.272;10.794;2023-05-20T01:18:47;95679.19;;;12.27;87.03
10978;BME280;5542;48.272;10.794;2023-05-20T01:21:17;95681.13;;;12.32;86.82
10978;BME280;5542;48.272;10.794;2023-05-20T01:23:45;95682.16;;;12.31;86.94
10978;BME280;5542;48.272;10.794;2023-05-20T01:26:12;95680.56;;;12.30;87.33
10978;BME280;5542;48.272;10.794;2023-05-20T01:28:40;95679.03;;;12.34;86.82
10978;BME280;5542;48.272;10.794;2023-05-20T01:31:10;95676.38;;;12.34;86.89
10978;BME280;5542;48.272;10.794;2023-05-20T01:33:40;95675.84;;;12.32;86.91
10978;BME280;5542;48.272;10.794;2023-05-20T01:36:08;95680.25;;;12.26;87.38
10978;BME280;5542;48.272;10.794;2023-05-20T01:38:36;95684.47;;;12.11;88.37
10978;BME280;5542;48.272;10.794;2023-05-20T01:41:06;95686.63;;;12.14;88.19
10978;BME280;5542;48.272;10.794;2023-05-20T01:43:33;95691.09;;;12.13;87.95
10978;BME280;5542;48.272;10.794;2023-05-20T01:46:04;95692.69;;;12.14;88.34
10978;BME280;5542;48.272;10.794;2023-05-20T01:48:31;95691.19;;;12.18;87.93
10978;BME280;5542;48.272;10.794;2023-05-20T01:50:57;95682.13;;;11.97;88.91
10978;BME280;5542;48.272;10.794;2023-05-20T01:53:24;95679.09;;;11.89;90.06
10978;BME280;5542;48.272;10.794;2023-05-20T01:55:50;95679.50;;;11.97;89.64
10978;BME280;5542;48.272;10.794;2023-05-20T01:58:18;95684.19;;;11.95;89.60
10978;BME280;5542;48.272;10.794;2023-05-20T02:00:45;95681.97;;;11.87;89.86
10978;BME280;5542;48.272;10.794;2023-05-20T02:03:12;95685.06;;;11.84;90.16
10978;BME280;5542;48.272;10.794;2023-05-20T02:05:38;95684.69;;;12.09;88.92
10978;BME280;5542;48.272;10.794;2023-05-20T02:08:05;95672.22;;;12.04;88.52
10978;BME280;5542;48.272;10.794;2023-05-20T02:10:32;95676.53;;;11.94;89.44
10978;BME280;5542;48.272;10.794;2023-05-20T02:12:58;95669.88;;;11.91;89.70
10978;BME280;5542;48.272;10.794;2023-05-20T02:15:26;95670.81;;;11.97;89.38
10978;BME280;5542;48.272;10.794;2023-05-20T02:17:53;95677.16;;;11.84;90.42
10978;BME280;5542;48.272;10.794;2023-05-20T02:20:22;95678.09;;;11.78;90.82
10978;BME280;5542;48.272;10.794;2023-05-20T02:22:48;95667.84;;;11.82;90.49
10978;BME280;5542;48.272;10.794;2023-05-20T02:25:15;95672.56;;;11.79;90.86
10978;BME280;5542;48.272;10.794;2023-05-20T02:27:41;95665.03;;;11.83;90.64
10978;BME280;5542;48.272;10.794;2023-05-20T02:30:08;95670.88;;;11.73;91.34
10978;BME280;5542;48.272;10.794;2023-05-20T02:32:37;95667.22;;;11.74;91.65
10978;BME280;5542;48.272;10.794;2023-05-20T02:35:04;95664.31;;;11.76;91.73
10978;BME280;5542;48.272;10.794;2023-05-20T02:37:30;95663.44;;;11.70;91.82
10978;BME280;5542;48.272;10.794;2023-05-20T02:39:57;95654.41;;;11.66;91.83
10978;BME280;5542;48.272;10.794;2023-05-20T02:42:23;95660.25;;;11.68;92.20
10978;BME280;5542;48.272;10.794;2023-05-20T02:44:50;95661.59;;;11.83;91.59
10978;BME280;5542;48.272;10.794;2023-05-20T02:47:20;95661.44;;;11.89;91.02
10978;BME280;5542;48.272;10.794;2023-05-20T02:49:48;95670.38;;;11.88;90.80
10978;BME280;5542;48.272;10.794;2023-05-20T02:52:15;95659.34;;;11.91;90.57
10978;BME280;5542;48.272;10.794;2023-05-20T02:54:41;95666.31;;;11.97;90.20
10978;BME280;5542;48.272;10.794;2023-05-20T02:57:08;95656.16;;;11.89;90.39
10978;BME280;5542;48.272;10.794;2023-05-20T02:59:34;95654.78;;;11.87;91.12
10978;BME280;5542;48.272;10.794;2023-05-20T03:02:01;95654.75;;;11.98;89.81
10978;BME280;5542;48.272;10.794;2023-05-20T03:04:28;95656.97;;;11.90;90.76
10978;BME280;5542;48.272;10.794;2023-05-20T03:06:57;95666.94;;;11.88;91.29
10978;BME280;5542;48.272;10.794;2023-05-20T03:09:23;95671.50;;;11.92;90.98
10978;BME280;5542;48.272;10.794;2023-05-20T03:11:50;95671.59;;;11.97;90.82
10978;BME280;5542;48.272;10.794;2023-05-20T03:14:16;95671.59;;;11.97;90.79
10978;BME280;5542;48.272;10.794;2023-05-20T03:16:43;95677.72;;;11.86;91.50
10978;BME280;5542;48.272;10.794;2023-05-20T03:19:10;95676.53;;;11.94;90.88
10978;BME280;5542;48.272;10.794;2023-05-20T03:21:36;95684.28;;;12.00;90.65
10978;BME280;5542;48.272;10.794;2023-05-20T03:24:04;95674.59;;;11.89;91.26
10978;BME280;5542;48.272;10.794;2023-05-20T03:26:31;95683.31;;;11.90;91.82
10978;BME280;5542;48.272;10.794;2023-05-20T03:29:01;95677.28;;;11.77;92.10
10978;BME280;5542;48.272;10.794;2023-05-20T03:31:28;95668.16;;;11.68;93.20
10978;BME280;5542;48.272;10.794;2023-05-20T03:33:55;95673.22;;;11.58;94.09
10978;BME280;5542;48.272;10.794;2023-05-20T03:36:21;95669.69;;;11.52;94.60
10978;BME280;5542;48.272;10.794;2023-05-20T03:38:48;95663.72;;;11.57;94.54
10978;BME280;5542;48.272;10.794;2023-05-20T03:41:16;95660.53;;;11.55;94.42
10978;BME280;5542;48.272;10.794;2023-05-20T03:43:42;95671.78;;;11.50;94.90
10978;BME280;5542;48.272;10.794;2023-05-20T03:48:36;95672.94;;;11.43;95.95
10978;BME280;5542;48.272;10.794;2023-05-20T03:51:03;95664.13;;;11.49;95.66
10978;BME280;5542;48.272;10.794;2023-05-20T03:53:29;95662.94;;;11.57;95.15
10978;BME280;5542;48.272;10.794;2023-05-20T03:55:56;95671.28;;;11.53;95.01
10978;BME280;5542;48.272;10.794;2023-05-20T03:58:24;95665.56;;;11.57;95.01
10978;BME280;5542;48.272;10.794;2023-05-20T04:00:53;95666.59;;;11.56;95.25
10978;BME280;5542;48.272;10.794;2023-05-20T04:03:19;95664.75;;;11.56;94.94
10978;BME280;5542;48.272;10.794;2023-05-20T04:05:46;95659.66;;;11.49;95.69
10978;BME280;5542;48.272;10.794;2023-05-20T04:08:13;95662.69;;;11.58;95.73
10978;BME280;5542;48.272;10.794;2023-05-20T04:10:40;95670.19;;;11.49;96.00
10978;BME280;5542;48.272;10.794;2023-05-20T04:13:07;95664.91;;;11.49;96.04
10978;BME280;5542;48.272;10.794;2023-05-20T04:15:35;95662.19;;;11.44;96.46
10978;BME280;5542;48.272;10.794;2023-05-20T04:18:02;95655.53;;;11.42;96.93
10978;BME280;5542;48.272;10.794;2023-05-20T04:20:30;95654.31;;;11.33;97.96
10978;BME280;5542;48.272;10.794;2023-05-20T04:22:57;95649.28;;;11.31;98.19
10978;BME280;5542;48.272;10.794;2023-05-20T04:25:23;95652.03;;;11.24;98.50
10978;BME280;5542;48.272;10.794;2023-05-20T04:27:51;95654.31;;;11.33;99.14
10978;BME280;5542;48.272;10.794;2023-05-20T04:30:18;95653.72;;;11.42;97.96
10978;BME280;5542;48.272;10.794;2023-05-20T04:32:48;95656.31;;;11.25;99.13
10978;BME280;5542;48.272;10.794;2023-05-20T04:35:15;95657.47;;;11.18;100.00
10978;BME280;5542;48.272;10.794;2023-05-20T04:37:43;95658.09;;;11.25;100.00
10978;BME280;5542;48.272;10.794;2023-05-20T04:40:12;95663.59;;;11.35;98.85
10978;BME280;5542;48.272;10.794;2023-05-20T04:42:39;95663.00;;;11.33;99.49
10978;BME280;5542;48.272;10.794;2023-05-20T04:45:06;95662.19;;;11.44;99.43
10978;BME280;5542;48.272;10.794;2023-05-20T04:47:33;95650.47;;;11.52;98.38
10978;BME280;5542;48.272;10.794;2023-05-20T04:50:05;95654.47;;;11.54;98.11
10978;BME280;5542;48.272;10.794;2023-05-20T04:52:34;95650.81;;;11.56;96.73
10978;BME280;5542;48.272;10.794;2023-05-20T04:55:01;95655.59;;;11.59;97.06
10978;BME280;5542;48.272;10.794;2023-05-20T04:57:28;95650.72;;;11.50;97.29
10978;BME280;5542;48.272;10.794;2023-05-20T04:59:55;95652.13;;;11.41;98.82
10978;BME280;5542;48.272;10.794;2023-05-20T05:02:23;95662.38;;;11.54;98.51
10978;BME280;5542;48.272;10.794;2023-05-20T05:04:49;95664.22;;;11.54;98.97
10978;BME280;5542;48.272;10.794;2023-05-20T05:07:17;95666.97;;;11.47;99.01
10978;BME280;5542;48.272;10.794;2023-05-20T05:09:44;95656.78;;;11.51;98.42
10978;BME280;5542;48.272;10.794;2023-05-20T05:12:10;95651.44;;;11.63;97.49
10978;BME280;5542;48.272;10.794;2023-05-20T05:14:37;95666.88;;;11.71;97.01
10978;BME280;5542;48.272;10.794;2023-05-20T05:17:04;95661.75;;;11.64;97.16
10978;BME280;5542;48.272;10.794;2023-05-20T05:19:30;95661.59;;;11.71;96.85
10978;BME280;5542;48.272;10.794;2023-05-20T05:21:57;95663.03;;;11.62;97.47
10978;BME280;5542;48.272;10.794;2023-05-20T05:24:25;95655.38;;;11.77;96.28
10978;BME280;5542;48.272;10.794;2023-05-20T05:26:52;95657.66;;;11.57;96.65
10978;BME280;5542;48.272;10.794;2023-05-20T05:29:19;95648.97;;;11.56;97.52
10978;BME280;5542;48.272;10.794;2023-05-20T05:31:46;95646.09;;;11.58;98.50
10978;BME280;5542;48.272;10.794;2023-05-20T05:34:12;95652.47;;;11.62;97.97
10978;BME280;5542;48.272;10.794;2023-05-20T05:36:39;95645.34;;;11.74;96.63
10978;BME280;5542;48.272;10.794;2023-05-20T05:39:06;95636.72;;;11.78;97.29
10978;BME280;5542;48.272;10.794;2023-05-20T05:41:34;95639.31;;;11.90;96.11
10978;BME280;5542;48.272;10.794;2023-05-20T05:44:01;95637.25;;;11.92;95.67
10978;BME280;5542;48.272;10.794;2023-05-20T05:46:27;95644.75;;;12.00;95.38
10978;BME280;5542;48.272;10.794;2023-05-20T05:48:54;95640.75;;;11.98;94.51
10978;BME280;5542;48.272;10.794;2023-05-20T05:51:23;95639.47;;;12.00;95.34
10978;BME280;5542;48.272;10.794;2023-05-20T05:53:52;95644.91;;;11.94;94.81
10978;BME280;5542;48.272;10.794;2023-05-20T05:56:18;95645.16;;;11.92;94.50
10978;BME280;5542;48.272;10.794;2023-05-20T05:58:47;95649.66;;;11.80;94.80
10978;BME280;5542;48.272;10.794;2023-05-20T06:01:13;95650.94;;;11.77;95.95
10978;BME280;5542;48.272;10.794;2023-05-20T06:03:40;95655.78;;;11.69;96.38
10978;BME280;5542;48.272;10.794;2023-05-20T06:06:07;95649.47;;;11.70;97.22
10978;BME280;5542;48.272;10.794;2023-05-20T06:08:33;95647.38;;;11.72;97.12
10978;BME280;5542;48.272;10.794;2023-05-20T06:11:00;95649.22;;;11.83;95.38
10978;BME280;5542;48.272;10.794;2023-05-20T06:13:26;95647.94;;;11.86;95.74
10978;BME280;5542;48.272;10.794;2023-05-20T06:15:54;95655.28;;;11.72;96.07
10978;BME280;5542;48.272;10.794;2023-05-20T06:18:21;95656.50;;;11.64;97.03
10978;BME280;5542;48.272;10.794;2023-05-20T06:20:53;95657.63;;;11.68;97.16
10978;BME280;5542;48.272;10.794;2023-05-20T06:23:20;95658.97;;;11.71;97.48
10978;BME280;5542;48.272;10.794;2023-05-20T06:25:47;95656.41;;;11.76;97.04
10978;BME280;5542;48.272;10.794;2023-05-20T06:28:14;95654.75;;;11.70;97.56
10978;BME280;5542;48.272;10.794;2023-05-20T06:30:40;95660.25;;;11.97;95.84
10978;BME280;5542;48.272;10.794;2023-05-20T06:33:08;95662.47;;;11.88;95.57
10978;BME280;5542;48.272;10.794;2023-05-20T06:35:35;95663.72;;;11.86;96.92
10978;BME280;5542;48.272;10.794;2023-05-20T06:38:02;95663.78;;;12.02;96.26
10978;BME280;5542;48.272;10.794;2023-05-20T06:40:29;95650.00;;;12.00;95.82
10978;BME280;5542;48.272;10.794;2023-05-20T06:42:55;95650.97;;;11.94;94.76
10978;BME280;5542;48.272;10.794;2023-05-20T06:45:22;95649.50;;;11.87;95.07
10978;BME280;5542;48.272;10.794;2023-05-20T06:47:48;95647.16;;;12.02;94.80
10978;BME280;5542;48.272;10.794;2023-05-20T06:50:17;95650.34;;;11.87;95.95
10978;BME280;5542;48.272;10.794;2023-05-20T06:52:43;95649.72;;;11.97;95.73
10978;BME280;5542;48.272;10.794;2023-05-20T06:55:10;95641.72;;;12.09;95.21
10978;BME280;5542;48.272;10.794;2023-05-20T06:57:37;95645.94;;;11.93;94.99
10978;BME280;5542;48.272;10.794;2023-05-20T07:00:04;95646.03;;;12.15;94.08
10978;BME280;5542;48.272;10.794;2023-05-20T07:02:32;95635.66;;;12.08;94.03
10978;BME280;5542;48.272;10.794;2023-05-20T07:04:59;95638.47;;;12.01;95.31
10978;BME280;5542;48.272;10.794;2023-05-20T07:07:26;95636.91;;;12.05;95.52
10978;BME280;5542;48.272;10.794;2023-05-20T07:09:53;95632.06;;;11.97;95.72
10978;BME280;5542;48.272;10.794;2023-05-20T07:12:20;95630.88;;;12.22;94.96
10978;BME280;5542;48.272;10.794;2023-05-20T07:14:47;95631.00;;;12.32;92.59
10978;BME280;5542;48.272;10.794;2023-05-20T07:17:13;95634.19;;;12.51;91.13
10978;BME280;5542;48.272;10.794;2023-05-20T07:19:40;95634.03;;;12.41;92.65
10978;BME280;5542;48.272;10.794;2023-05-20T07:22:09;95627.31;;;12.50;92.63
10978;BME280;5542;48.272;10.794;2023-05-20T07:24:39;95619.78;;;12.59;92.37
10978;BME280;5542;48.272;10.794;2023-05-20T07:27:05;95624.41;;;12.68;91.98
10978;BME280;5542;48.272;10.794;2023-05-20T07:29:33;95621.19;;;12.66;92.03
10978;BME280;5542;48.272;10.794;2023-05-20T07:31:59;95622.56;;;12.69;91.15
10978;BME280;5542;48.272;10.794;2023-05-20T07:34:26;95619.19;;;12.73;90.65
10978;BME280;5542;48.272;10.794;2023-05-20T07:36:52;95618.47;;;12.78;90.34
10978;BME280;5542;48.272;10.794;2023-05-20T07:39:19;95614.84;;;12.84;89.37
10978;BME280;5542;48.272;10.794;2023-05-20T07:41:47;95608.72;;;12.78;90.11
10978;BME280;5542;48.272;10.794;2023-05-20T07:44:14;95616.06;;;12.98;89.39
10978;BME280;5542;48.272;10.794;2023-05-20T07:46:43;95612.44;;;13.04;88.13
10978;BME280;5542;48.272;10.794;2023-05-20T07:49:10;95612.44;;;13.04;88.66
10978;BME280;5542;48.272;10.794;2023-05-20T07:51:36;95615.88;;;13.05;88.96
10978;BME280;5542;48.272;10.794;2023-05-20T07:54:03;95609.53;;;13.23;88.29
10978;BME280;5542;48.272;10.794;2023-05-20T07:56:29;95612.78;;;13.30;85.91
10978;BME280;5542;48.272;10.794;2023-05-20T07:58:58;95617.31;;;13.13;87.49
10978;BME280;5542;48.272;10.794;2023-05-20T08:01:26;95611.53;;;13.16;85.17
10978;BME280;5542;48.272;10.794;2023-05-20T08:04:04;95600.69;;;13.34;86.62
10978;BME280;5542;48.272;10.794;2023-05-20T08:06:31;95596.78;;;13.69;85.30
10978;BME280;5542;48.272;10.794;2023-05-20T08:08:59;95604.03;;;14.11;81.70
10978;BME280;5542;48.272;10.794;2023-05-20T08:11:26;95593.00;;;14.29;81.00
10978;BME280;5542;48.272;10.794;2023-05-20T08:13:53;95592.06;;;14.40;80.12
10978;BME280;5542;48.272;10.794;2023-05-20T08:16:29;95588.56;;;14.29;79.98
10978;BME280;5542;48.272;10.794;2023-05-20T08:18:56;95603.59;;;14.29;79.09
10978;BME280;5542;48.272;10.794;2023-05-20T08:21:24;95601.44;;;14.21;79.76
10978;BME280;5542;48.272;10.794;2023-05-20T08:23:51;95604.88;;;14.21;79.52
10978;BME280;5542;48.272;10.794;2023-05-20T08:26:17;95612.16;;;14.04;80.42
10978;BME280;5542;48.272;10.794;2023-05-20T08:28:44;95612.75;;;14.11;79.46
10978;BME280;5542;48.272;10.794;2023-05-20T08:31:11;95608.31;;;14.22;78.37
10978;BME280;5542;48.272;10.794;2023-05-20T08:33:38;95616.19;;;14.12;78.65
10978;BME280;5542;48.272;10.794;2023-05-20T08:36:05;95606.53;;;14.32;78.14
10978;BME280;5542;48.272;10.794;2023-05-20T08:38:33;95611.13;;;14.47;77.47
10978;BME280;5542;48.272;10.794;2023-05-20T08:41:00;95608.25;;;14.91;78.93
10978;BME280;5542;48.272;10.794;2023-05-20T08:43:27;95607.38;;;15.43;75.06
10978;BME280;5542;48.272;10.794;2023-05-20T08:45:57;95610.28;;;15.57;74.57
10978;BME280;5542;48.272;10.794;2023-05-20T08:48:29;95614.91;;;15.82;70.45
10978;BME280;5542;48.272;10.794;2023-05-20T08:50:57;95610.03;;;15.48;71.82
10978;BME280;5542;48.272;10.794;2023-05-20T08:53:25;95607.13;;;15.60;73.35
10978;BME280;5542;48.272;10.794;2023-05-20T08:55:54;95606.41;;;16.10;72.85
10978;BME280;5542;48.272;10.794;2023-05-20T08:58:22;95598.44;;;16.31;68.68
10978;BME280;5542;48.272;10.794;2023-05-20T09:00:49;95603.19;;;16.54;68.50
10978;BME280;5542;48.272;10.794;2023-05-20T09:03:17;95600.00;;;16.42;67.79
10978;BME280;5542;48.272;10.794;2023-05-20T09:05:45;95601.38;;;16.24;68.34
10978;BME280;5542;48.272;10.794;2023-05-20T09:08:14;95602.97;;;16.30;68.05
10978;BME280;5542;48.272;10.794;2023-05-20T09:10:41;95589.66;;;16.46;67.05
10978;BME280;5542;48.272;10.794;2023-05-20T09:13:09;95591.50;;;16.60;69.63
10978;BME280;5542;48.272;10.794;2023-05-20T09:15:36;95590.88;;;17.04;68.94
10978;BME280;5542;48.272;10.794;2023-05-20T09:18:05;95590.69;;;17.40;65.05
10978;BME280;5542;48.272;10.794;2023-05-20T09:20:33;95581.66;;;17.85;68.86
10978;BME280;5542;48.272;10.794;2023-05-20T09:23:03;95578.34;;;18.33;61.47
10978;BME280;5542;48.272;10.794;2023-05-20T09:25:31;95571.09;;;18.38;62.12
10978;BME280;5542;48.272;10.794;2023-05-20T09:27:58;95566.06;;;18.61;60.47
10978;BME280;5542;48.272;10.794;2023-05-20T09:30:25;95572.97;;;18.38;64.00
10978;BME280;5542;48.272;10.794;2023-05-20T09:32:52;95562.75;;;18.74;62.77
10978;BME280;5542;48.272;10.794;2023-05-20T09:35:20;95555.06;;;18.97;62.84
10978;BME280;5542;48.272;10.794;2023-05-20T09:37:47;95556.09;;;19.19;56.56
10978;BME280;5542;48.272;10.794;2023-05-20T09:40:16;95560.16;;;18.69;58.81
10978;BME280;5542;48.272;10.794;2023-05-20T09:42:50;95565.34;;;18.55;59.85
10978;BME280;5542;48.272;10.794;2023-05-20T09:45:18;95565.78;;;18.38;59.94
10978;BME280;5542;48.272;10.794;2023-05-20T09:50:20;95556.38;;;18.99;60.58
10978;BME280;5542;48.272;10.794;2023-05-20T09:52:49;95556.31;;;19.04;58.36
10978;BME280;5542;48.272;10.794;2023-05-20T09:55:17;95550.06;;;19.14;57.89
10978;BME280;5542;48.272;10.794;2023-05-20T09:57:44;95554.78;;;19.17;57.57
10978;BME280;5542;48.272;10.794;2023-05-20T10:00:14;95553.06;;;19.26;58.22
10978;BME280;5542;48.272;10.794;2023-05-20T10:02:43;95550.94;;;19.47;56.48
10978;BME280;5542;48.272;10.794;2023-05-20T10:05:14;95558.19;;;19.23;56.12
10978;BME280;5542;48.272;10.794;2023-05-20T10:10:41;95553.13;;;19.02;56.52
10978;BME280;5542;48.272;10.794;2023-05-20T10:13:20;95549.63;;;18.83;57.70
10978;BME280;5542;48.272;10.794;2023-05-20T10:15:58;95550.28;;;18.70;58.00
10978;BME280;5542;48.272;10.794;2023-05-20T10:18:48;95553.84;;;18.84;59.85
10978;BME280;5542;48.272;10.794;2023-05-20T10:21:21;95547.53;;;19.04;58.53
10978;BME280;5542;48.272;10.794;2023-05-20T10:23:49;95539.91;;;19.35;56.80
10978;BME280;5542;48.272;10.794;2023-05-20T10:26:16;95539.47;;;19.47;57.84
10978;BME280;5542;48.272;10.794;2023-05-20T10:28:44;95543.81;;;19.42;58.03
10978;BME280;5542;48.272;10.794;2023-05-20T10:31:16;95544.06;;;19.79;58.45
10978;BME280;5542;48.272;10.794;2023-05-20T10:33:44;95538.44;;;19.99;54.48
10978;BME280;5542;48.272;10.794;2023-05-20T10:36:21;95536.66;;;19.76;54.77
10978;BME280;5542;48.272;10.794;2023-05-20T10:38:51;95532.91;;;19.77;54.29
10978;BME280;5542;48.272;10.794;2023-05-20T10:41:20;95535.66;;;19.53;54.01
10978;BME280;5542;48.272;10.794;2023-05-20T10:43:58;95529.16;;;19.40;54.34
10978;BME280;5542;48.272;10.794;2023-05-20T10:46:26;95524.84;;;19.63;55.93
10978;BME280;5542;48.272;10.794;2023-05-20T10:48:52;95512.72;;;19.52;53.40
10978;BME280;5542;48.272;10.794;2023-05-20T10:51:19;95514.81;;;19.36;55.71
10978;BME280;5542;48.272;10.794;2023-05-20T10:53:46;95523.34;;;19.76;56.97
10978;BME280;5542;48.272;10.794;2023-05-20T10:56:16;95526.59;;;20.05;55.56
10978;BME280;5542;48.272;10.794;2023-05-20T10:58:43;95515.19;;;20.00;55.17
10978;BME280;5542;48.272;10.794;2023-05-20T11:01:10;95515.50;;;19.79;52.80
10978;BME280;5542;48.272;10.794;2023-05-20T11:03:39;95516.47;;;19.69;54.08
10978;BME280;5542;48.272;10.794;2023-05-20T11:06:10;95507.41;;;19.71;54.42
10978;BME280;5542;48.272;10.794;2023-05-20T11:08:37;95500.81;;;19.82;53.37
10978;BME280;5542;48.272;10.794;2023-05-20T11:11:04;95512.88;;;19.60;54.49
10978;BME280;5542;48.272;10.794;2023-05-20T11:13:30;95511.66;;;19.53;54.69
10978;BME280;5542;48.272;10.794;2023-05-20T11:15:57;95508.69;;;19.73;54.77
10978;BME280;5542;48.272;10.794;2023-05-20T11:18:26;95494.91;;;19.85;53.77
10978;BME280;5542;48.272;10.794;2023-05-20T11:20:55;95496.78;;;19.98;55.22
10978;BME280;5542;48.272;10.794;2023-05-20T11:23:22;95500.31;;;20.26;56.17
10978;BME280;5542;48.272;10.794;2023-05-20T11:25:49;95496.81;;;20.72;55.80
10978;BME280;5542;48.272;10.794;2023-05-20T11:28:17;95485.31;;;20.85;53.77
10978;BME280;5542;48.272;10.794;2023-05-20T11:30:46;95479.97;;;20.85;51.74
10978;BME280;5542;48.272;10.794;2023-05-20T11:33:14;95473.44;;;20.78;49.79
10978;BME280;5542;48.272;10.794;2023-05-20T11:35:44;95484.75;;;20.61;51.29
10978;BME280;5542;48.272;10.794;2023-05-20T11:38:12;95484.91;;;20.37;52.39
10978;BME280;5542;48.272;10.794;2023-05-20T11:40:42;95477.97;;;20.36;52.23
10978;BME280;5542;48.272;10.794;2023-05-20T11:43:11;95474.22;;;20.64;52.25
10978;BME280;5542;48.272;10.794;2023-05-20T11:45:38;95475.91;;;20.88;51.91
10978;BME280;5542;48.272;10.794;2023-05-20T11:48:06;95462.75;;;20.78;49.50
10978;BME280;5542;48.272;10.794;2023-05-20T11:50:34;95466.31;;;20.87;51.27
10978;BME280;5542;48.272;10.794;2023-05-20T11:53:04;95464.94;;;20.89;50.53
10978;BME280;5542;48.272;10.794;2023-05-20T11:55:32;95466.47;;;21.04;51.81
10978;BME280;5542;48.272;10.794;2023-05-20T11:58:00;95459.09;;;21.23;51.75
10978;BME280;5542;48.272;10.794;2023-05-20T12:00:26;95461.00;;;21.45;49.96
10978;BME280;5542;48.272;10.794;2023-05-20T12:02:53;95460.16;;;21.36;49.13
10978;BME280;5542;48.272;10.794;2023-05-20T12:05:20;95459.69;;;21.57;46.81
10978;BME280;5542;48.272;10.794;2023-05-20T12:07:47;95461.88;;;21.32;45.29
10978;BME280;5542;48.272;10.794;2023-05-20T12:10:14;95461.91;;;21.41;47.72
10978;BME280;5542;48.272;10.794;2023-05-20T12:12:42;95453.88;;;21.18;46.63
10978;BME280;5542;48.272;10.794;2023-05-20T12:15:10;95452.66;;;21.25;45.98
10978;BME280;5542;48.272;10.794;2023-05-20T12:17:45;95457.41;;;21.28;46.49
10978;BME280;5542;48.272;10.794;2023-05-20T12:20:13;95457.78;;;21.35;47.65
10978;BME280;5542;48.272;10.794;2023-05-20T12:22:40;95452.22;;;21.09;47.39
10978;BME280;5542;48.272;10.794;2023-05-20T12:25:07;95450.81;;;20.97;48.11
10978;BME280;5542;48.272;10.794;2023-05-20T12:27:36;95439.38;;;20.83;48.39
10978;BME280;5542;48.272;10.794;2023-05-20T12:30:05;95431.53;;;21.01;49.22
10978;BME280;5542;48.272;10.794;2023-05-20T12:32:34;95436.91;;;21.37;48.86
10978;BME280;5542;48.272;10.794;2023-05-20T12:35:00;95431.44;;;21.28;47.63
10978;BME280;5542;48.272;10.794;2023-05-20T12:37:27;95443.03;;;21.37;49.34
10978;BME280;5542;48.272;10.794;2023-05-20T12:39:54;95434.25;;;21.45;47.57
10978;BME280;5542;48.272;10.794;2023-05-20T12:42:20;95443.16;;;21.18;48.01
10978;BME280;5542;48.272;10.794;2023-05-20T12:44:47;95444.22;;;21.31;49.49
10978;BME280;5542;48.272;10.794;2023-05-20T12:47:15;95438.03;;;21.44;48.06
10978;BME280;5542;48.272;10.794;2023-05-20T12:49:41;95445.03;;;21.32;49.12
10978;BME280;5542;48.272;10.794;2023-05-20T12:52:08;95450.44;;;21.27;47.31
10978;BME280;5542;48.272;10.794;2023-05-20T12:54:35;95444.44;;;21.21;47.82
10978;BME280;5542;48.272;10.794;2023-05-20T12:57:01;95423.81;;;21.21;47.88
10978;BME280;5542;48.272;10.794;2023-05-20T12:59:28;95430.13;;;21.39;46.49
10978;BME280;5542;48.272;10.794;2023-05-20T13:01:55;95416.69;;;21.31;46.80
10978;BME280;5542;48.272;10.794;2023-05-20T13:04:23;95417.19;;;21.33;47.56
10978;BME280;5542;48.272;10.794;2023-05-20T13:06:50;95404.09;;;21.54;45.47
10978;BME280;5542;48.272;10.794;2023-05-20T13:09:16;95407.31;;;21.64;46.22